createdAt,value
2022-11-08T00:04:45.081Z,14
2022-11-08T00:09:45.069Z,13.9
2022-11-08T00:14:45.062Z,13.9
2022-11-08T00:19:45.061Z,13.9
2022-11-08T00:24:45.081Z,13.9
2022-11-08T00:29:45.141Z,13.8
2022-11-08T00:34:45.095Z,13.8
2022-11-08T00:39:45.110Z,13.8
2022-11-08T00:44:45.131Z,13.8
2022-11-08T00:49:45.145Z,13.8
2022-11-08T00:54:45.138Z,13.8
2022-11-08T00:59:45.166Z,13.7
2022-11-08T01:04:45.209Z,13.7
2022-11-08T01:09:45.263Z,13.7
2022-11-08T01:14:45.300Z,13.6
2022-11-08T01:19:45.244Z,13.6
2022-11-08T01:24:45.265Z,13.5
2022-11-08T01:29:45.413Z,13.5
2022-11-08T01:34:45.232Z,13.5
2022-11-08T01:39:45.307Z,13.4
2022-11-08T01:44:45.396Z,13.4
2022-11-08T01:49:45.352Z,13.4
2022-11-08T01:54:45.291Z,13.4
2022-11-08T01:59:45.322Z,13.3
2022-11-08T02:04:45.339Z,13.3
2022-11-08T02:09:45.390Z,13.4
2022-11-08T02:14:45.386Z,13.4
2022-11-08T02:19:45.418Z,13.4
2022-11-08T02:24:45.463Z,13.4
2022-11-08T02:29:45.534Z,13.4
2022-11-08T02:34:45.542Z,13.4
2022-11-08T02:39:45.592Z,13.4
2022-11-08T02:44:45.787Z,13.3
2022-11-08T02:49:45.908Z,13.3
2022-11-08T02:54:45.710Z,13.3
2022-11-08T02:59:45.873Z,13.3
2022-11-08T03:04:45.907Z,13.3
2022-11-08T03:09:45.753Z,13.2
2022-11-08T03:14:45.761Z,13.2
2022-11-08T03:19:45.767Z,13.2
2022-11-08T03:24:45.791Z,13.2
2022-11-08T03:29:46.031Z,13.2
2022-11-08T03:34:46.008Z,13.1
2022-11-08T03:39:46.012Z,13.2
2022-11-08T03:44:46.042Z,13.2
2022-11-08T03:49:46.334Z,13.2
2022-11-08T03:54:46.051Z,13.1
2022-11-08T03:59:46.055Z,13.2
2022-11-08T04:04:46.170Z,13.2
2022-11-08T04:09:46.227Z,13.1
2022-11-08T04:14:46.209Z,13.1
2022-11-08T04:19:46.228Z,13
2022-11-08T04:24:46.386Z,13
2022-11-08T04:29:46.312Z,13
2022-11-08T04:34:46.325Z,13
2022-11-08T04:39:46.306Z,12.9
2022-11-08T04:44:46.394Z,12.9
2022-11-08T04:49:46.548Z,12.8
2022-11-08T04:54:46.382Z,12.8
2022-11-08T04:59:46.317Z,12.8
2022-11-08T05:04:46.340Z,12.7
2022-11-08T05:09:46.321Z,12.8
2022-11-08T05:14:46.316Z,12.7
2022-11-08T05:19:46.307Z,12.7
2022-11-08T05:24:46.332Z,12.7
2022-11-08T05:29:46.363Z,12.7
2022-11-08T05:34:46.358Z,12.7
2022-11-08T05:39:46.388Z,12.7
2022-11-08T05:44:46.383Z,12.7
2022-11-08T05:49:46.773Z,12.7
2022-11-08T05:54:46.521Z,12.7
2022-11-08T05:59:46.556Z,12.6
2022-11-08T06:04:46.565Z,12.6
2022-11-08T06:09:46.578Z,12.6
2022-11-08T06:14:46.570Z,12.6
2022-11-08T06:19:46.586Z,12.5
2022-11-08T06:24:46.608Z,12.5
2022-11-08T06:29:46.775Z,12.5
2022-11-08T06:34:46.622Z,12.6
2022-11-08T06:39:46.601Z,12.5
2022-11-08T06:44:46.629Z,12.6
2022-11-08T06:49:46.698Z,12.6
2022-11-08T06:54:46.872Z,12.6
2022-11-08T06:59:46.836Z,12.6
2022-11-08T07:04:47.164Z,12.6
2022-11-08T07:09:46.827Z,12.5
2022-11-08T07:14:46.819Z,12.5
2022-11-08T07:19:46.817Z,12.5
2022-11-08T07:24:46.867Z,12.5
2022-11-08T07:29:46.830Z,12.6
2022-11-08T07:34:46.839Z,12.6
2022-11-08T07:39:47.027Z,12.6
2022-11-08T07:44:47.057Z,12.6
2022-11-08T07:49:47.013Z,12.6
2022-11-08T07:54:47.154Z,12.6
2022-11-08T07:59:47.021Z,12.7
2022-11-08T08:04:47.258Z,12.9
2022-11-08T08:09:47.049Z,13
2022-11-08T08:14:47.080Z,13
2022-11-08T08:19:47.240Z,13.1
2022-11-08T08:24:47.331Z,13.3
2022-11-08T08:29:47.230Z,13.3
2022-11-08T08:34:47.221Z,13.5
2022-11-08T08:39:47.227Z,13.5
2022-11-08T08:44:47.331Z,13.6
2022-11-08T08:49:47.344Z,13.7
2022-11-08T08:54:47.349Z,13.8
2022-11-08T09:04:47.497Z,14
2022-11-08T09:09:47.418Z,14.1
2022-11-08T09:14:47.458Z,14.2
2022-11-08T09:19:47.638Z,14.3
2022-11-08T09:24:47.656Z,14.4
2022-11-08T09:29:47.600Z,14.5
2022-11-08T09:34:47.734Z,14.6
2022-11-08T09:39:47.968Z,14.6
2022-11-08T09:44:47.775Z,14.7
2022-11-08T09:49:47.731Z,14.8
2022-11-08T09:54:47.834Z,14.9
2022-11-08T09:59:47.802Z,15
2022-11-08T10:04:47.842Z,15.2
2022-11-08T10:09:47.840Z,15.3
2022-11-08T10:14:53.694Z,15.4
2022-11-08T10:19:48.553Z,15.5
2022-11-08T10:24:47.964Z,15.6
2022-11-08T10:29:48.050Z,15.8
2022-11-08T10:34:48.003Z,15.8
2022-11-08T10:39:48.005Z,15.9
2022-11-08T10:44:48.022Z,16.1
2022-11-08T10:49:48.006Z,16.1
2022-11-08T10:54:48.022Z,16.3
2022-11-08T10:59:47.994Z,16.3
2022-11-08T11:04:48.012Z,16.4
2022-11-08T11:09:47.993Z,16.5
2022-11-08T11:14:47.998Z,16.6
2022-11-08T11:19:48.014Z,16.7
2022-11-08T11:24:48.117Z,16.8
2022-11-08T11:29:48.214Z,16.9
2022-11-08T11:34:48.097Z,17.1
2022-11-08T11:39:48.179Z,17.2
2022-11-08T11:44:48.361Z,17.4
2022-11-08T11:49:48.339Z,17.6
2022-11-08T11:54:48.330Z,17.7
2022-11-08T11:59:48.339Z,17.7
2022-11-08T12:04:48.352Z,17.8
2022-11-08T12:09:48.468Z,17.8
2022-11-08T12:14:48.333Z,18
2022-11-08T12:19:48.350Z,18.1
2022-11-08T12:24:48.349Z,18.2
2022-11-08T12:29:48.479Z,18.3
2022-11-08T12:34:48.457Z,18.4
2022-11-08T12:39:48.549Z,18.4
2022-11-08T12:44:48.355Z,18.5
2022-11-08T12:49:48.711Z,18.5
2022-11-08T12:54:48.606Z,18.6
2022-11-08T12:59:48.626Z,18.7
2022-11-08T13:04:48.642Z,18.8
2022-11-08T13:09:48.597Z,18.9
2022-11-08T13:14:48.609Z,19
2022-11-08T13:19:48.633Z,19
2022-11-08T13:24:48.659Z,18.9
2022-11-08T13:29:48.719Z,18.8
2022-11-08T13:34:48.730Z,18.7
2022-11-08T13:39:48.697Z,18.6
2022-11-08T13:44:48.771Z,18.6
2022-11-08T13:49:48.865Z,18.5
2022-11-08T13:54:48.779Z,18.4
2022-11-08T13:59:48.774Z,18.4
2022-11-08T14:04:48.814Z,18.4
2022-11-08T14:09:48.755Z,18.3
2022-11-08T14:14:48.968Z,18.3
2022-11-08T14:19:48.835Z,18.2
2022-11-08T14:24:49.163Z,18.1
2022-11-08T14:29:48.895Z,18
2022-11-08T14:34:48.980Z,17.9
2022-11-08T14:39:48.921Z,17.9
2022-11-08T14:44:48.946Z,17.8
2022-11-08T14:49:48.904Z,17.8
2022-11-08T14:54:49.599Z,17.7
2022-11-08T14:59:52.641Z,17.7
2022-11-08T15:04:49.018Z,17.6
2022-11-08T15:09:49.087Z,17.6
2022-11-08T15:14:49.551Z,17.5
2022-11-08T15:19:49.182Z,17.4
2022-11-08T15:24:49.137Z,17.4
2022-11-08T15:29:49.162Z,17.4
2022-11-08T15:34:49.378Z,17.3
2022-11-08T15:39:49.268Z,17.2
2022-11-08T15:44:49.464Z,17.2
2022-11-08T15:49:49.328Z,17.2
2022-11-08T15:54:49.339Z,17.1
2022-11-08T15:59:49.456Z,17.1
2022-11-08T16:04:49.404Z,17.1
2022-11-08T16:09:49.628Z,17
2022-11-08T16:14:50.143Z,17
2022-11-08T16:19:49.747Z,16.9
2022-11-08T16:24:49.965Z,16.9
2022-11-08T16:29:50.715Z,16.8
2022-11-08T16:34:50.638Z,16.8
2022-11-08T16:39:50.372Z,16.8
2022-11-08T16:44:50.761Z,16.7
2022-11-08T16:49:51.490Z,16.7
2022-11-08T16:54:51.036Z,16.7
2022-11-08T16:59:50.906Z,16.7
2022-11-08T17:04:51.290Z,16.6
2022-11-08T17:09:51.196Z,16.5
2022-11-08T17:14:51.233Z,16.5
2022-11-08T17:19:51.304Z,16.4
2022-11-08T17:24:51.617Z,16.4
2022-11-08T17:29:51.931Z,16.4
2022-11-08T17:34:51.597Z,16.4
2022-11-08T17:39:51.874Z,16.3
2022-11-08T17:44:52.644Z,16.3
2022-11-08T17:49:52.621Z,16.3
2022-11-08T17:54:53.302Z,16.3
2022-11-08T17:59:53.235Z,16.3
2022-11-08T18:04:52.777Z,16.3
2022-11-08T18:09:52.738Z,16.2
2022-11-08T18:14:53.578Z,16.1
2022-11-08T18:19:53.655Z,16.1
2022-11-08T18:24:53.214Z,16
2022-11-08T18:29:53.557Z,16
2022-11-08T18:34:53.382Z,16
2022-11-08T18:39:53.184Z,16
2022-11-08T18:44:53.586Z,15.9
2022-11-08T18:49:53.472Z,15.9
2022-11-08T18:54:53.510Z,15.9
2022-11-08T18:59:56.146Z,15.9
2022-11-08T19:04:53.496Z,15.8
2022-11-08T19:09:53.387Z,15.8
2022-11-08T19:15:19.605Z,15.8
2022-11-08T19:20:19.639Z,15.8
2022-11-08T19:25:19.583Z,15.8
2022-11-08T19:30:19.586Z,15.7
2022-11-08T19:35:19.571Z,15.7
2022-11-08T19:40:19.605Z,15.7
2022-11-08T19:45:19.506Z,15.7
2022-11-08T19:50:19.531Z,15.7
2022-11-08T19:55:19.515Z,15.7
2022-11-08T20:00:19.545Z,15.7
2022-11-08T20:05:19.502Z,15.6
2022-11-08T20:10:19.537Z,15.7
2022-11-08T20:15:19.485Z,15.7
2022-11-08T20:20:19.519Z,15.8
2022-11-08T20:25:19.488Z,15.8
2022-11-08T20:30:19.507Z,15.8
2022-11-08T20:35:23.340Z,15.8
2022-11-08T20:40:19.516Z,15.8
2022-11-08T20:45:19.500Z,15.8
2022-11-08T20:50:19.519Z,15.8
2022-11-08T20:55:19.490Z,15.8
2022-11-08T21:00:28.415Z,15.7
2022-11-08T21:05:19.494Z,15.7
2022-11-08T21:10:41.329Z,15.7
2022-11-08T21:15:22.969Z,15.6
2022-11-08T21:20:19.522Z,15.6
2022-11-08T21:25:19.507Z,15.6
2022-11-08T21:30:19.500Z,15.5
2022-11-08T21:35:19.496Z,15.5
2022-11-08T21:40:19.551Z,15.5
2022-11-08T21:45:19.495Z,15.5
2022-11-08T21:50:19.525Z,15.4
2022-11-08T21:55:19.472Z,15.4
2022-11-08T22:00:19.672Z,15.4
2022-11-08T22:05:19.472Z,15.4
2022-11-08T22:10:19.516Z,15.3
2022-11-08T22:15:19.500Z,15.4
2022-11-08T22:20:19.531Z,15.3
2022-11-08T22:25:19.507Z,15.3
2022-11-08T22:30:19.476Z,15.3
2022-11-08T22:35:19.492Z,15.3
2022-11-08T22:40:19.504Z,15.3
2022-11-08T22:45:19.477Z,15.2
2022-11-08T22:50:19.499Z,15.3
2022-11-08T22:55:19.493Z,15.3
2022-11-08T23:00:19.509Z,15.2
2022-11-08T23:05:19.483Z,15.2
2022-11-08T23:10:19.515Z,15.2
2022-11-08T23:15:19.612Z,15.2
2022-11-08T23:20:19.672Z,15.2
2022-11-08T23:25:19.539Z,15.2
2022-11-08T23:30:19.534Z,15.2
2022-11-08T23:35:19.551Z,15.2
2022-11-08T23:40:19.555Z,15.2
2022-11-08T23:45:19.527Z,15.2
2022-11-08T23:50:19.572Z,15.1
2022-11-08T23:55:19.521Z,15.1
